sensor_id;sensor_type;location;lat;lon;timestamp;temperature;humidity
3380;DHT22;1703;51.964;7.642;2023-09-18T00:02:02;20.70;99.90
3380;DHT22;1703;51.964;7.642;2023-09-18T00:04:29;20.80;99.90
3380;DHT22;1703;51.964;7.642;2023-09-18T00:06:55;20.80;99.90
3380;DHT22;1703;51.964;7.642;2023-09-18T00:09:22;20.80;99.90
3380;DHT22;1703;51.964;7.642;2023-09-18T00:11:49;20.80;99.90
3380;DHT22;1703;51.964;7.642;2023-09-18T00:14:18;20.80;99.90
3380;DHT22;1703;51.964;7.642;2023-09-18T00:16:45;20.80;99.90
3380;DHT22;1703;51.964;7.642;2023-09-18T00:19:12;20.80;99.90
3380;DHT22;1703;51.964;7.642;2023-09-18T00:21:38;20.80;99.90
3380;DHT22;1703;51.964;7.642;2023-09-18T00:24:06;20.80;99.90
3380;DHT22;1703;51.964;7.642;2023-09-18T00:26:33;20.80;99.90
3380;DHT22;1703;51.964;7.642;2023-09-18T00:29:00;20.80;99.90
3380;DHT22;1703;51.964;7.642;2023-09-18T00:31:28;20.80;99.90
3380;DHT22;1703;51.964;7.642;2023-09-18T00:33:55;20.80;99.90
3380;DHT22;1703;51.964;7.642;2023-09-18T00:36:22;20.80;99.90
3380;DHT22;1703;51.964;7.642;2023-09-18T00:38:49;20.80;99.90
3380;DHT22;1703;51.964;7.642;2023-09-18T00:41:15;20.80;99.90
3380;DHT22;1703;51.964;7.642;2023-09-18T00:43:43;20.80;99.90
3380;DHT22;1703;51.964;7.642;2023-09-18T00:46:10;20.70;99.90
3380;DHT22;1703;51.964;7.642;2023-09-18T00:48:38;20.70;99.90
3380;DHT22;1703;51.964;7.642;2023-09-18T00:51:05;20.70;99.90
3380;DHT22;1703;51.964;7.642;2023-09-18T00:53:32;20.70;99.90
3380;DHT22;1703;51.964;7.642;2023-09-18T00:56:00;20.80;99.90
3380;DHT22;1703;51.964;7.642;2023-09-18T00:58:27;20.70;99.90
3380;DHT22;1703;51.964;7.642;2023-09-18T01:00:54;20.70;99.90
3380;DHT22;1703;51.964;7.642;2023-09-18T01:03:22;20.70;99.90
3380;DHT22;1703;51.964;7.642;2023-09-18T01:05:53;20.70;99.90
3380;DHT22;1703;51.964;7.642;2023-09-18T01:08:20;20.70;99.90
3380;DHT22;1703;51.964;7.642;2023-09-18T01:10:53;20.70;99.90
3380;DHT22;1703;51.964;7.642;2023-09-18T01:13:27;20.70;99.90
3380;DHT22;1703;51.964;7.642;2023-09-18T01:16:00;20.70;99.90
3380;DHT22;1703;51.964;7.642;2023-09-18T01:18:29;20.70;99.90
3380;DHT22;1703;51.964;7.642;2023-09-18T01:20:57;20.70;99.90
3380;DHT22;1703;51.964;7.642;2023-09-18T01:23:25;20.70;99.90
3380;DHT22;1703;51.964;7.642;2023-09-18T01:25:52;20.70;99.90
3380;DHT22;1703;51.964;7.642;2023-09-18T01:28:19;20.70;99.90
3380;DHT22;1703;51.964;7.642;2023-09-18T01:30:46;20.70;99.90
3380;DHT22;1703;51.964;7.642;2023-09-18T01:33:14;20.70;99.90
3380;DHT22;1703;51.964;7.642;2023-09-18T01:35:42;20.70;99.90
3380;DHT22;1703;51.964;7.642;2023-09-18T01:38:09;20.70;99.90
3380;DHT22;1703;51.964;7.642;2023-09-18T01:40:38;20.70;99.90
3380;DHT22;1703;51.964;7.642;2023-09-18T01:43:05;20.70;99.90
3380;DHT22;1703;51.964;7.642;2023-09-18T01:45:33;20.60;99.90
3380;DHT22;1703;51.964;7.642;2023-09-18T01:47:59;20.60;99.90
3380;DHT22;1703;51.964;7.642;2023-09-18T01:50:26;20.60;99.90
3380;DHT22;1703;51.964;7.642;2023-09-18T01:52:53;20.60;99.90
3380;DHT22;1703;51.964;7.642;2023-09-18T01:55:20;20.50;99.90
3380;DHT22;1703;51.964;7.642;2023-09-18T01:57:48;20.60;99.90
3380;DHT22;1703;51.964;7.642;2023-09-18T02:00:16;20.60;99.90
3380;DHT22;1703;51.964;7.642;2023-09-18T02:02:43;20.60;99.90
3380;DHT22;1703;51.964;7.642;2023-09-18T02:05:10;20.60;99.90
3380;DHT22;1703;51.964;7.642;2023-09-18T02:07:37;20.60;99.90
3380;DHT22;1703;51.964;7.642;2023-09-18T02:10:05;20.60;99.90
3380;DHT22;1703;51.964;7.642;2023-09-18T02:12:32;20.50;99.90
3380;DHT22;1703;51.964;7.642;2023-09-18T02:15:03;20.60;99.90
3380;DHT22;1703;51.964;7.642;2023-09-18T02:17:32;20.50;99.90
3380;DHT22;1703;51.964;7.642;2023-09-18T02:19:59;20.50;99.90
3380;DHT22;1703;51.964;7.642;2023-09-18T02:22:26;20.50;99.90
3380;DHT22;1703;51.964;7.642;2023-09-18T02:24:53;20.50;99.90
3380;DHT22;1703;51.964;7.642;2023-09-18T02:27:20;20.50;99.90
3380;DHT22;1703;51.964;7.642;2023-09-18T02:29:46;20.50;99.90
3380;DHT22;1703;51.964;7.642;2023-09-18T02:32:17;20.50;99.90
3380;DHT22;1703;51.964;7.642;2023-09-18T02:34:44;20.50;99.90
3380;DHT22;1703;51.964;7.642;2023-09-18T02:37:11;20.50;99.90
3380;DHT22;1703;51.964;7.642;2023-09-18T02:39:37;20.50;99.90
3380;DHT22;1703;51.964;7.642;2023-09-18T02:42:04;20.50;99.90
3380;DHT22;1703;51.964;7.642;2023-09-18T02:44:31;20.50;99.90
3380;DHT22;1703;51.964;7.642;2023-09-18T02:46:58;20.50;99.90
3380;DHT22;1703;51.964;7.642;2023-09-18T02:49:26;20.50;99.90
3380;DHT22;1703;51.964;7.642;2023-09-18T02:51:53;20.50;99.90
3380;DHT22;1703;51.964;7.642;2023-09-18T02:54:20;20.40;99.90
3380;DHT22;1703;51.964;7.642;2023-09-18T02:56:47;20.40;99.90
3380;DHT22;1703;51.964;7.642;2023-09-18T02:59:14;20.40;99.90
3380;DHT22;1703;51.964;7.642;2023-09-18T03:01:41;20.40;99.90
3380;DHT22;1703;51.964;7.642;2023-09-18T03:04:08;20.40;99.90
3380;DHT22;1703;51.964;7.642;2023-09-18T03:06:38;20.40;99.90
3380;DHT22;1703;51.964;7.642;2023-09-18T03:09:05;20.40;99.90
3380;DHT22;1703;51.964;7.642;2023-09-18T03:11:32;20.40;99.90
3380;DHT22;1703;51.964;7.642;2023-09-18T03:13:59;20.40;99.90
3380;DHT22;1703;51.964;7.642;2023-09-18T03:16:26;20.40;99.90
3380;DHT22;1703;51.964;7.642;2023-09-18T03:18:53;20.50;99.90
3380;DHT22;1703;51.964;7.642;2023-09-18T03:21:19;20.50;99.90
3380;DHT22;1703;51.964;7.642;2023-09-18T03:23:47;20.50;99.90
3380;DHT22;1703;51.964;7.642;2023-09-18T03:26:15;20.50;99.90
3380;DHT22;1703;51.964;7.642;2023-09-18T03:28:42;20.50;99.90
3380;DHT22;1703;51.964;7.642;2023-09-18T03:31:10;20.50;99.90
3380;DHT22;1703;51.964;7.642;2023-09-18T03:33:36;20.50;99.90
3380;DHT22;1703;51.964;7.642;2023-09-18T03:36:03;20.50;99.90
3380;DHT22;1703;51.964;7.642;2023-09-18T03:38:33;20.50;99.90
3380;DHT22;1703;51.964;7.642;2023-09-18T03:41:03;20.50;99.90
3380;DHT22;1703;51.964;7.642;2023-09-18T03:43:30;20.50;99.90
3380;DHT22;1703;51.964;7.642;2023-09-18T03:46:03;20.60;99.90
3380;DHT22;1703;51.964;7.642;2023-09-18T03:48:32;20.60;99.90
3380;DHT22;1703;51.964;7.642;2023-09-18T03:51:03;20.60;99.90
3380;DHT22;1703;51.964;7.642;2023-09-18T03:53:31;20.60;99.90
3380;DHT22;1703;51.964;7.642;2023-09-18T03:55:58;20.60;99.90
3380;DHT22;1703;51.964;7.642;2023-09-18T03:58:26;20.60;99.90
3380;DHT22;1703;51.964;7.642;2023-09-18T04:00:53;20.60;99.90
3380;DHT22;1703;51.964;7.642;2023-09-18T04:03:20;20.60;99.90
3380;DHT22;1703;51.964;7.642;2023-09-18T04:05:47;20.60;99.90
3380;DHT22;1703;51.964;7.642;2023-09-18T04:08:14;20.60;99.90
3380;DHT22;1703;51.964;7.642;2023-09-18T04:10:41;20.70;99.90
3380;DHT22;1703;51.964;7.642;2023-09-18T04:13:09;20.70;99.90
3380;DHT22;1703;51.964;7.642;2023-09-18T04:15:37;20.70;99.90
3380;DHT22;1703;51.964;7.642;2023-09-18T04:18:04;20.70;99.90
3380;DHT22;1703;51.964;7.642;2023-09-18T04:20:31;20.70;99.90
3380;DHT22;1703;51.964;7.642;2023-09-18T04:23:19;20.70;99.90
3380;DHT22;1703;51.964;7.642;2023-09-18T04:25:47;20.70;99.90
3380;DHT22;1703;51.964;7.642;2023-09-18T04:28:14;20.70;99.90
3380;DHT22;1703;51.964;7.642;2023-09-18T04:30:42;20.70;99.90
3380;DHT22;1703;51.964;7.642;2023-09-18T04:33:09;20.70;99.90
3380;DHT22;1703;51.964;7.642;2023-09-18T04:35:37;20.70;99.90
3380;DHT22;1703;51.964;7.642;2023-09-18T04:38:07;20.70;99.90
3380;DHT22;1703;51.964;7.642;2023-09-18T04:40:36;20.70;99.90
3380;DHT22;1703;51.964;7.642;2023-09-18T04:43:03;20.70;99.90
3380;DHT22;1703;51.964;7.642;2023-09-18T04:45:30;20.70;99.90
3380;DHT22;1703;51.964;7.642;2023-09-18T04:47:59;20.80;99.90
3380;DHT22;1703;51.964;7.642;2023-09-18T04:50:26;20.80;99.90
3380;DHT22;1703;51.964;7.642;2023-09-18T04:52:53;20.80;99.90
3380;DHT22;1703;51.964;7.642;2023-09-18T04:55:21;20.80;99.90
3380;DHT22;1703;51.964;7.642;2023-09-18T04:57:48;20.80;99.90
3380;DHT22;1703;51.964;7.642;2023-09-18T05:00:15;20.80;99.90
3380;DHT22;1703;51.964;7.642;2023-09-18T05:02:43;20.80;99.90
3380;DHT22;1703;51.964;7.642;2023-09-18T05:05:11;20.80;99.90
3380;DHT22;1703;51.964;7.642;2023-09-18T05:07:39;20.80;99.90
3380;DHT22;1703;51.964;7.642;2023-09-18T05:10:06;20.80;99.90
3380;DHT22;1703;51.964;7.642;2023-09-18T05:12:33;20.80;99.90
3380;DHT22;1703;51.964;7.642;2023-09-18T05:15:00;20.80;99.90
3380;DHT22;1703;51.964;7.642;2023-09-18T05:17:40;20.80;99.90
3380;DHT22;1703;51.964;7.642;2023-09-18T05:20:16;20.80;99.90
3380;DHT22;1703;51.964;7.642;2023-09-18T05:22:44;20.70;99.90
3380;DHT22;1703;51.964;7.642;2023-09-18T05:25:11;20.70;99.90
3380;DHT22;1703;51.964;7.642;2023-09-18T05:27:40;20.80;99.90
3380;DHT22;1703;51.964;7.642;2023-09-18T05:30:11;20.80;99.90
3380;DHT22;1703;51.964;7.642;2023-09-18T05:32:39;20.80;99.90
3380;DHT22;1703;51.964;7.642;2023-09-18T05:35:06;20.80;99.90
3380;DHT22;1703;51.964;7.642;2023-09-18T05:37:37;20.80;99.90
3380;DHT22;1703;51.964;7.642;2023-09-18T05:40:05;20.80;99.90
3380;DHT22;1703;51.964;7.642;2023-09-18T05:42:35;20.70;99.90
3380;DHT22;1703;51.964;7.642;2023-09-18T05:45:02;20.70;99.90
3380;DHT22;1703;51.964;7.642;2023-09-18T05:47:29;20.80;99.90
3380;DHT22;1703;51.964;7.642;2023-09-18T05:49:56;20.80;99.90
3380;DHT22;1703;51.964;7.642;2023-09-18T05:52:23;20.90;99.90
3380;DHT22;1703;51.964;7.642;2023-09-18T05:54:52;21.00;99.90
3380;DHT22;1703;51.964;7.642;2023-09-18T05:57:18;21.00;99.90
3380;DHT22;1703;51.964;7.642;2023-09-18T05:59:45;21.00;99.90
3380;DHT22;1703;51.964;7.642;2023-09-18T06:02:12;21.10;99.90
3380;DHT22;1703;51.964;7.642;2023-09-18T06:04:39;21.20;99.90
3380;DHT22;1703;51.964;7.642;2023-09-18T06:07:06;21.20;99.90
3380;DHT22;1703;51.964;7.642;2023-09-18T06:09:34;21.20;99.90
3380;DHT22;1703;51.964;7.642;2023-09-18T06:12:02;21.20;99.90
3380;DHT22;1703;51.964;7.642;2023-09-18T06:14:30;21.30;99.90
3380;DHT22;1703;51.964;7.642;2023-09-18T06:16:57;21.30;99.90
3380;DHT22;1703;51.964;7.642;2023-09-18T06:19:24;21.40;99.90
3380;DHT22;1703;51.964;7.642;2023-09-18T06:21:51;21.40;99.90
3380;DHT22;1703;51.964;7.642;2023-09-18T06:24:17;21.50;99.90
3380;DHT22;1703;51.964;7.642;2023-09-18T06:26:44;21.60;99.90
3380;DHT22;1703;51.964;7.642;2023-09-18T06:29:12;21.60;99.90
3380;DHT22;1703;51.964;7.642;2023-09-18T06:31:39;21.60;99.90
3380;DHT22;1703;51.964;7.642;2023-09-18T06:34:06;21.60;99.90
3380;DHT22;1703;51.964;7.642;2023-09-18T06:36:33;21.60;99.90
3380;DHT22;1703;51.964;7.642;2023-09-18T06:39:00;21.60;99.90
3380;DHT22;1703;51.964;7.642;2023-09-18T06:41:27;21.60;99.90
3380;DHT22;1703;51.964;7.642;2023-09-18T06:43:54;21.70;99.90
3380;DHT22;1703;51.964;7.642;2023-09-18T06:46:24;21.70;99.90
3380;DHT22;1703;51.964;7.642;2023-09-18T06:48:50;21.70;99.90
3380;DHT22;1703;51.964;7.642;2023-09-18T06:51:18;21.70;99.90
3380;DHT22;1703;51.964;7.642;2023-09-18T06:53:45;21.70;99.90
3380;DHT22;1703;51.964;7.642;2023-09-18T06:56:12;21.80;99.90
3380;DHT22;1703;51.964;7.642;2023-09-18T06:58:39;21.80;99.90
3380;DHT22;1703;51.964;7.642;2023-09-18T07:01:06;21.80;99.90
3380;DHT22;1703;51.964;7.642;2023-09-18T07:03:36;21.80;99.90
3380;DHT22;1703;51.964;7.642;2023-09-18T07:06:05;21.80;99.90
3380;DHT22;1703;51.964;7.642;2023-09-18T07:08:32;21.80;99.90
3380;DHT22;1703;51.964;7.642;2023-09-18T07:10:59;21.80;99.90
3380;DHT22;1703;51.964;7.642;2023-09-18T07:13:26;21.80;99.90
3380;DHT22;1703;51.964;7.642;2023-09-18T07:15:53;21.80;99.90
3380;DHT22;1703;51.964;7.642;2023-09-18T07:18:20;21.80;99.90
3380;DHT22;1703;51.964;7.642;2023-09-18T07:20:48;21.80;99.90
3380;DHT22;1703;51.964;7.642;2023-09-18T07:23:15;21.80;99.90
3380;DHT22;1703;51.964;7.642;2023-09-18T07:25:42;21.80;99.90
3380;DHT22;1703;51.964;7.642;2023-09-18T07:28:09;21.80;99.90
3380;DHT22;1703;51.964;7.642;2023-09-18T07:30:41;21.80;99.90
3380;DHT22;1703;51.964;7.642;2023-09-18T07:33:09;21.80;99.90
3380;DHT22;1703;51.964;7.642;2023-09-18T07:35:36;21.80;99.90
3380;DHT22;1703;51.964;7.642;2023-09-18T07:38:05;21.80;99.90
3380;DHT22;1703;51.964;7.642;2023-09-18T07:40:32;21.90;99.90
3380;DHT22;1703;51.964;7.642;2023-09-18T07:42:58;21.90;99.90
3380;DHT22;1703;51.964;7.642;2023-09-18T07:45:25;21.90;99.90
3380;DHT22;1703;51.964;7.642;2023-09-18T07:47:52;21.90;99.90
3380;DHT22;1703;51.964;7.642;2023-09-18T07:50:19;21.90;99.90
3380;DHT22;1703;51.964;7.642;2023-09-18T07:52:46;22.00;99.90
3380;DHT22;1703;51.964;7.642;2023-09-18T07:55:14;22.00;99.90
3380;DHT22;1703;51.964;7.642;2023-09-18T07:57:41;21.90;99.90
3380;DHT22;1703;51.964;7.642;2023-09-18T08:00:10;21.90;99.90
3380;DHT22;1703;51.964;7.642;2023-09-18T08:02:38;22.00;99.90
3380;DHT22;1703;51.964;7.642;2023-09-18T08:05:05;22.00;99.90
3380;DHT22;1703;51.964;7.642;2023-09-18T08:07:33;21.90;99.90
3380;DHT22;1703;51.964;7.642;2023-09-18T08:10:00;22.00;99.90
3380;DHT22;1703;51.964;7.642;2023-09-18T08:12:29;22.00;99.90
3380;DHT22;1703;51.964;7.642;2023-09-18T08:14:55;22.10;99.90
3380;DHT22;1703;51.964;7.642;2023-09-18T08:17:24;22.10;99.90
3380;DHT22;1703;51.964;7.642;2023-09-18T08:19:51;22.20;99.90
3380;DHT22;1703;51.964;7.642;2023-09-18T08:22:19;22.20;99.90
3380;DHT22;1703;51.964;7.642;2023-09-18T08:24:46;22.20;99.90
3380;DHT22;1703;51.964;7.642;2023-09-18T08:27:14;22.20;99.90
3380;DHT22;1703;51.964;7.642;2023-09-18T08:29:43;22.20;99.90
3380;DHT22;1703;51.964;7.642;2023-09-18T08:32:10;22.30;99.90
3380;DHT22;1703;51.964;7.642;2023-09-18T08:34:37;22.30;99.90
3380;DHT22;1703;51.964;7.642;2023-09-18T08:37:04;22.20;99.90
3380;DHT22;1703;51.964;7.642;2023-09-18T08:39:31;22.30;99.90
3380;DHT22;1703;51.964;7.642;2023-09-18T08:42:02;22.20;99.90
3380;DHT22;1703;51.964;7.642;2023-09-18T08:44:30;22.20;99.90
3380;DHT22;1703;51.964;7.642;2023-09-18T08:46:59;22.20;99.90
3380;DHT22;1703;51.964;7.642;2023-09-18T08:49:26;22.20;99.90
3380;DHT22;1703;51.964;7.642;2023-09-18T08:51:55;22.20;99.90
3380;DHT22;1703;51.964;7.642;2023-09-18T08:54:22;22.10;99.90
3380;DHT22;1703;51.964;7.642;2023-09-18T08:56:50;22.10;99.90
3380;DHT22;1703;51.964;7.642;2023-09-18T08:59:17;22.10;99.90
3380;DHT22;1703;51.964;7.642;2023-09-18T09:01:47;22.00;99.90
3380;DHT22;1703;51.964;7.642;2023-09-18T09:04:15;22.00;99.90
3380;DHT22;1703;51.964;7.642;2023-09-18T09:06:42;22.00;99.90
3380;DHT22;1703;51.964;7.642;2023-09-18T09:09:09;21.90;99.90
3380;DHT22;1703;51.964;7.642;2023-09-18T09:11:38;21.90;99.90
3380;DHT22;1703;51.964;7.642;2023-09-18T09:14:09;21.90;99.90
3380;DHT22;1703;51.964;7.642;2023-09-18T09:16:45;22.00;99.90
3380;DHT22;1703;51.964;7.642;2023-09-18T09:19:13;22.00;99.90
3380;DHT22;1703;51.964;7.642;2023-09-18T09:21:41;22.10;99.90
3380;DHT22;1703;51.964;7.642;2023-09-18T09:24:09;22.00;99.90
3380;DHT22;1703;51.964;7.642;2023-09-18T09:26:40;22.10;99.90
3380;DHT22;1703;51.964;7.642;2023-09-18T09:29:14;22.10;99.90
3380;DHT22;1703;51.964;7.642;2023-09-18T09:31:43;22.10;99.90
3380;DHT22;1703;51.964;7.642;2023-09-18T09:34:10;22.20;99.90
3380;DHT22;1703;51.964;7.642;2023-09-18T09:36:51;22.20;99.90
3380;DHT22;1703;51.964;7.642;2023-09-18T09:39:18;22.30;99.90
3380;DHT22;1703;51.964;7.642;2023-09-18T09:41:47;22.30;99.90
3380;DHT22;1703;51.964;7.642;2023-09-18T09:44:15;22.40;99.90
3380;DHT22;1703;51.964;7.642;2023-09-18T09:46:45;22.40;99.90
3380;DHT22;1703;51.964;7.642;2023-09-18T09:49:12;22.40;99.90
3380;DHT22;1703;51.964;7.642;2023-09-18T09:51:42;22.50;99.90
3380;DHT22;1703;51.964;7.642;2023-09-18T09:54:09;22.60;99.90
3380;DHT22;1703;51.964;7.642;2023-09-18T09:56:44;22.60;99.90
3380;DHT22;1703;51.964;7.642;2023-09-18T09:59:12;22.60;99.90
3380;DHT22;1703;51.964;7.642;2023-09-18T10:01:40;22.60;99.90
3380;DHT22;1703;51.964;7.642;2023-09-18T10:04:12;22.70;99.90
3380;DHT22;1703;51.964;7.642;2023-09-18T10:06:43;22.80;99.90
3380;DHT22;1703;51.964;7.642;2023-09-18T10:09:12;22.70;99.90
3380;DHT22;1703;51.964;7.642;2023-09-18T10:11:41;22.70;99.90
3380;DHT22;1703;51.964;7.642;2023-09-18T10:14:12;22.80;99.90
3380;DHT22;1703;51.964;7.642;2023-09-18T10:16:45;22.70;99.90
3380;DHT22;1703;51.964;7.642;2023-09-18T10:19:21;22.60;99.90
3380;DHT22;1703;51.964;7.642;2023-09-18T10:22:00;22.70;99.90
3380;DHT22;1703;51.964;7.642;2023-09-18T10:24:33;22.70;99.90
3380;DHT22;1703;51.964;7.642;2023-09-18T10:27:03;22.70;99.90
3380;DHT22;1703;51.964;7.642;2023-09-18T10:29:33;22.70;99.90
3380;DHT22;1703;51.964;7.642;2023-09-18T10:32:03;22.70;99.90
3380;DHT22;1703;51.964;7.642;2023-09-18T10:34:31;22.70;99.90
3380;DHT22;1703;51.964;7.642;2023-09-18T10:37:02;22.80;99.90
3380;DHT22;1703;51.964;7.642;2023-09-18T10:39:34;22.80;99.90
3380;DHT22;1703;51.964;7.642;2023-09-18T10:42:02;22.90;99.90
3380;DHT22;1703;51.964;7.642;2023-09-18T10:44:29;22.90;99.90
3380;DHT22;1703;51.964;7.642;2023-09-18T10:46:57;22.90;99.90
3380;DHT22;1703;51.964;7.642;2023-09-18T10:49:25;22.90;99.90
3380;DHT22;1703;51.964;7.642;2023-09-18T10:51:54;22.90;99.90
3380;DHT22;1703;51.964;7.642;2023-09-18T10:54:25;22.90;99.90
3380;DHT22;1703;51.964;7.642;2023-09-18T10:56:52;22.80;99.90
3380;DHT22;1703;51.964;7.642;2023-09-18T10:59:20;22.80;99.90
3380;DHT22;1703;51.964;7.642;2023-09-18T11:02:02;22.90;99.90
3380;DHT22;1703;51.964;7.642;2023-09-18T11:04:43;22.90;99.90
3380;DHT22;1703;51.964;7.642;2023-09-18T11:07:20;23.00;99.90
3380;DHT22;1703;51.964;7.642;2023-09-18T11:09:48;23.10;99.90
3380;DHT22;1703;51.964;7.642;2023-09-18T11:12:18;23.00;99.90
3380;DHT22;1703;51.964;7.642;2023-09-18T11:14:48;23.10;99.90
3380;DHT22;1703;51.964;7.642;2023-09-18T11:17:34;23.20;99.90
3380;DHT22;1703;51.964;7.642;2023-09-18T11:20:09;23.20;99.90
3380;DHT22;1703;51.964;7.642;2023-09-18T11:22:40;23.40;99.90
3380;DHT22;1703;51.964;7.642;2023-09-18T11:25:37;23.40;99.90
3380;DHT22;1703;51.964;7.642;2023-09-18T11:28:07;23.50;99.90
3380;DHT22;1703;51.964;7.642;2023-09-18T11:30:36;23.60;99.90
3380;DHT22;1703;51.964;7.642;2023-09-18T11:33:05;23.60;99.90
3380;DHT22;1703;51.964;7.642;2023-09-18T11:35:37;23.60;99.90
3380;DHT22;1703;51.964;7.642;2023-09-18T11:38:06;23.60;99.90
3380;DHT22;1703;51.964;7.642;2023-09-18T11:40:37;23.60;99.90
3380;DHT22;1703;51.964;7.642;2023-09-18T11:43:23;23.60;99.90
3380;DHT22;1703;51.964;7.642;2023-09-18T11:45:54;23.50;99.90
3380;DHT22;1703;51.964;7.642;2023-09-18T11:48:22;23.50;99.90
3380;DHT22;1703;51.964;7.642;2023-09-18T11:50:55;23.50;99.90
3380;DHT22;1703;51.964;7.642;2023-09-18T11:53:24;23.60;99.90
3380;DHT22;1703;51.964;7.642;2023-09-18T11:55:52;23.70;99.90
3380;DHT22;1703;51.964;7.642;2023-09-18T11:58:24;23.80;99.90
3380;DHT22;1703;51.964;7.642;2023-09-18T12:00:53;23.90;99.90
3380;DHT22;1703;51.964;7.642;2023-09-18T12:03:23;24.00;99.90
3380;DHT22;1703;51.964;7.642;2023-09-18T12:05:55;24.10;99.90
3380;DHT22;1703;51.964;7.642;2023-09-18T12:08:22;24.00;99.90
3380;DHT22;1703;51.964;7.642;2023-09-18T12:11:03;24.00;99.90
3380;DHT22;1703;51.964;7.642;2023-09-18T12:13:31;24.00;99.90
3380;DHT22;1703;51.964;7.642;2023-09-18T12:15:59;24.00;99.90
3380;DHT22;1703;51.964;7.642;2023-09-18T12:18:34;24.00;99.90
3380;DHT22;1703;51.964;7.642;2023-09-18T12:21:10;24.00;99.90
3380;DHT22;1703;51.964;7.642;2023-09-18T12:23:47;24.00;99.90
3380;DHT22;1703;51.964;7.642;2023-09-18T12:26:21;24.10;99.90
3380;DHT22;1703;51.964;7.642;2023-09-18T12:28:54;24.20;99.90
3380;DHT22;1703;51.964;7.642;2023-09-18T12:31:28;24.30;99.90
3380;DHT22;1703;51.964;7.642;2023-09-18T12:34:00;24.40;99.90
3380;DHT22;1703;51.964;7.642;2023-09-18T12:36:27;24.40;99.90
3380;DHT22;1703;51.964;7.642;2023-09-18T12:38:58;24.30;99.90
3380;DHT22;1703;51.964;7.642;2023-09-18T12:41:27;24.50;99.90
3380;DHT22;1703;51.964;7.642;2023-09-18T12:44:00;24.50;99.90
3380;DHT22;1703;51.964;7.642;2023-09-18T12:46:35;24.60;99.90
3380;DHT22;1703;51.964;7.642;2023-09-18T12:49:16;24.70;99.90
3380;DHT22;1703;51.964;7.642;2023-09-18T12:51:44;24.70;99.90
3380;DHT22;1703;51.964;7.642;2023-09-18T12:54:14;24.80;99.90
3380;DHT22;1703;51.964;7.642;2023-09-18T12:56:47;24.70;99.90
3380;DHT22;1703;51.964;7.642;2023-09-18T12:59:14;24.70;99.90
3380;DHT22;1703;51.964;7.642;2023-09-18T13:01:48;24.70;99.90
3380;DHT22;1703;51.964;7.642;2023-09-18T13:04:18;24.70;99.90
3380;DHT22;1703;51.964;7.642;2023-09-18T13:07:11;24.60;99.90
3380;DHT22;1703;51.964;7.642;2023-09-18T13:09:43;24.60;99.90
3380;DHT22;1703;51.964;7.642;2023-09-18T13:12:12;24.60;99.90
3380;DHT22;1703;51.964;7.642;2023-09-18T13:15:00;24.50;99.90
3380;DHT22;1703;51.964;7.642;2023-09-18T13:17:38;24.40;99.90
3380;DHT22;1703;51.964;7.642;2023-09-18T13:20:12;24.40;99.90
3380;DHT22;1703;51.964;7.642;2023-09-18T13:22:40;24.30;99.90
3380;DHT22;1703;51.964;7.642;2023-09-18T13:25:10;24.30;99.90
3380;DHT22;1703;51.964;7.642;2023-09-18T13:27:39;24.20;99.90
3380;DHT22;1703;51.964;7.642;2023-09-18T13:30:08;24.20;99.90
3380;DHT22;1703;51.964;7.642;2023-09-18T13:32:36;24.30;99.90
3380;DHT22;1703;51.964;7.642;2023-09-18T13:35:04;24.30;99.90
3380;DHT22;1703;51.964;7.642;2023-09-18T13:37:33;24.20;99.90
3380;DHT22;1703;51.964;7.642;2023-09-18T13:40:04;24.20;99.90
3380;DHT22;1703;51.964;7.642;2023-09-18T13:42:34;24.10;99.90
3380;DHT22;1703;51.964;7.642;2023-09-18T13:45:07;24.30;99.90
3380;DHT22;1703;51.964;7.642;2023-09-18T13:47:35;25.10;99.90
3380;DHT22;1703;51.964;7.642;2023-09-18T13:50:04;25.90;99.90
3380;DHT22;1703;51.964;7.642;2023-09-18T13:52:34;26.90;99.90
3380;DHT22;1703;51.964;7.642;2023-09-18T13:55:01;27.90;99.90
3380;DHT22;1703;51.964;7.642;2023-09-18T13:57:31;28.90;99.90
3380;DHT22;1703;51.964;7.642;2023-09-18T13:59:59;29.60;99.90
3380;DHT22;1703;51.964;7.642;2023-09-18T14:02:27;29.60;99.90
3380;DHT22;1703;51.964;7.642;2023-09-18T14:04:55;30.20;99.90
3380;DHT22;1703;51.964;7.642;2023-09-18T14:07:22;30.90;99.90
3380;DHT22;1703;51.964;7.642;2023-09-18T14:09:49;31.30;99.90
3380;DHT22;1703;51.964;7.642;2023-09-18T14:12:16;31.30;99.90
3380;DHT22;1703;51.964;7.642;2023-09-18T14:14:43;31.20;99.90
3380;DHT22;1703;51.964;7.642;2023-09-18T14:17:10;30.30;99.90
3380;DHT22;1703;51.964;7.642;2023-09-18T14:19:39;29.80;99.90
3380;DHT22;1703;51.964;7.642;2023-09-18T14:22:06;29.30;99.90
3380;DHT22;1703;51.964;7.642;2023-09-18T14:24:33;28.70;99.90
3380;DHT22;1703;51.964;7.642;2023-09-18T14:27:00;28.30;99.90
3380;DHT22;1703;51.964;7.642;2023-09-18T14:29:28;27.80;99.90
3380;DHT22;1703;51.964;7.642;2023-09-18T14:31:56;27.40;99.90
3380;DHT22;1703;51.964;7.642;2023-09-18T14:34:23;26.90;99.90
3380;DHT22;1703;51.964;7.642;2023-09-18T14:36:51;26.70;99.90
3380;DHT22;1703;51.964;7.642;2023-09-18T14:39:18;26.60;99.90
3380;DHT22;1703;51.964;7.642;2023-09-18T14:41:44;26.50;99.90
3380;DHT22;1703;51.964;7.642;2023-09-18T14:44:13;26.50;99.90
3380;DHT22;1703;51.964;7.642;2023-09-18T14:46:40;26.30;99.90
3380;DHT22;1703;51.964;7.642;2023-09-18T14:49:08;26.00;99.90
3380;DHT22;1703;51.964;7.642;2023-09-18T14:51:35;25.80;99.90
3380;DHT22;1703;51.964;7.642;2023-09-18T14:54:04;25.70;99.90
3380;DHT22;1703;51.964;7.642;2023-09-18T14:56:33;25.70;99.90
3380;DHT22;1703;51.964;7.642;2023-09-18T14:59:01;25.60;99.90
3380;DHT22;1703;51.964;7.642;2023-09-18T15:01:28;25.40;99.90
3380;DHT22;1703;51.964;7.642;2023-09-18T15:03:55;25.40;99.90
3380;DHT22;1703;51.964;7.642;2023-09-18T15:06:21;25.40;99.90
3380;DHT22;1703;51.964;7.642;2023-09-18T15:08:48;25.40;99.90
3380;DHT22;1703;51.964;7.642;2023-09-18T15:11:16;25.30;99.90
3380;DHT22;1703;51.964;7.642;2023-09-18T15:13:45;25.30;99.90
3380;DHT22;1703;51.964;7.642;2023-09-18T15:16:12;25.20;99.90
3380;DHT22;1703;51.964;7.642;2023-09-18T15:18:39;25.10;99.90
3380;DHT22;1703;51.964;7.642;2023-09-18T15:21:06;25.00;99.90
3380;DHT22;1703;51.964;7.642;2023-09-18T15:23:33;25.00;99.90
3380;DHT22;1703;51.964;7.642;2023-09-18T15:25:59;25.00;99.90
3380;DHT22;1703;51.964;7.642;2023-09-18T15:28:28;25.00;99.90
3380;DHT22;1703;51.964;7.642;2023-09-18T15:30:55;24.90;99.90
3380;DHT22;1703;51.964;7.642;2023-09-18T15:33:22;25.00;99.90
3380;DHT22;1703;51.964;7.642;2023-09-18T15:35:51;25.00;99.90
3380;DHT22;1703;51.964;7.642;2023-09-18T15:38:18;25.00;99.90
3380;DHT22;1703;51.964;7.642;2023-09-18T15:40:46;25.10;99.90
3380;DHT22;1703;51.964;7.642;2023-09-18T15:43:13;25.00;99.90
3380;DHT22;1703;51.964;7.642;2023-09-18T15:45:41;25.00;99.90
3380;DHT22;1703;51.964;7.642;2023-09-18T15:48:08;25.00;99.90
3380;DHT22;1703;51.964;7.642;2023-09-18T15:50:35;24.90;99.90
3380;DHT22;1703;51.964;7.642;2023-09-18T15:53:02;24.80;99.90
3380;DHT22;1703;51.964;7.642;2023-09-18T15:55:29;24.90;99.90
3380;DHT22;1703;51.964;7.642;2023-09-18T15:57:56;24.80;99.90
3380;DHT22;1703;51.964;7.642;2023-09-18T16:00:22;24.80;99.90
3380;DHT22;1703;51.964;7.642;2023-09-18T16:02:51;24.80;99.90
3380;DHT22;1703;51.964;7.642;2023-09-18T16:05:18;24.70;99.90
3380;DHT22;1703;51.964;7.642;2023-09-18T16:07:51;24.60;99.90
3380;DHT22;1703;51.964;7.642;2023-09-18T16:10:18;24.60;99.90
3380;DHT22;1703;51.964;7.642;2023-09-18T16:12:45;24.50;99.90